createdAt,value
2018-04-20T13:21:57.927Z,3.33
2018-04-20T13:24:30.569Z,3.20
2018-04-20T13:27:02.466Z,3.40
2018-04-20T13:29:35.102Z,3.28
2018-04-20T13:32:07.011Z,3.92
2018-04-20T13:34:39.666Z,5.20
2018-04-20T13:37:11.873Z,3.50
2018-04-20T13:39:43.785Z,3.53
2018-04-20T13:42:15.670Z,3.30
2018-04-20T13:44:48.578Z,3.58
2018-04-20T13:47:20.458Z,3.62
2018-04-20T13:49:52.354Z,3.65
2018-04-20T13:52:24.563Z,3.35
2018-04-20T13:54:56.460Z,3.50
2018-04-20T13:57:28.346Z,3.67
2018-04-20T14:00:00.241Z,3.30
2018-04-20T14:02:32.901Z,3.40
2018-04-20T14:05:05.555Z,3.70
2018-04-20T14:07:37.446Z,3.53
2018-04-20T14:10:10.102Z,3.47
2018-04-20T14:12:42.311Z,3.33
2018-04-20T14:15:14.218Z,3.92
2018-04-20T14:17:46.087Z,4.10
2018-04-20T14:20:17.979Z,3.85
2018-04-20T14:22:50.626Z,3.53
2018-04-20T14:25:22.560Z,3.78
2018-04-20T14:27:54.446Z,3.80
2018-04-20T14:30:26.339Z,3.90
2018-04-20T14:32:59.015Z,3.62
2018-04-20T14:35:31.666Z,3.30
2018-04-20T14:38:03.555Z,3.22
2018-04-20T14:40:36.446Z,3.33
2018-04-20T14:43:08.614Z,3.85
2018-04-20T14:45:40.509Z,3.80
2018-04-20T14:48:12.383Z,4.00
2018-04-20T14:50:44.270Z,4.05
2018-04-20T14:53:16.923Z,3.92
2018-04-20T14:55:48.823Z,4.20
2018-04-20T14:58:21.458Z,4.45
2018-04-20T15:00:53.351Z,3.60
2018-04-20T15:03:25.243Z,3.47
2018-04-20T15:05:57.134Z,3.85
2018-04-20T15:08:29.006Z,3.75
2018-04-20T15:11:00.898Z,3.92
2018-04-20T15:13:33.546Z,3.90
2018-04-20T15:16:05.437Z,3.40
2018-04-20T15:18:38.090Z,4.32
2018-04-20T15:21:10.298Z,3.87
2018-04-20T15:23:42.178Z,3.62
2018-04-20T15:26:14.090Z,3.90
2018-04-20T15:28:45.968Z,4.20
2018-04-20T16:01:08.275Z,3.47
2018-04-20T16:03:40.151Z,4.07
2018-04-20T16:06:12.802Z,3.72
2018-04-20T16:08:44.697Z,2.97
2018-04-20T16:11:17.345Z,4.43
2018-04-20T16:13:49.233Z,3.30
2018-04-20T16:16:21.885Z,4.00
2018-04-20T16:18:53.759Z,3.97
2018-04-20T16:21:26.412Z,4.30
2018-04-20T16:23:58.286Z,4.20
2018-04-20T16:26:30.187Z,3.35
2018-04-20T16:29:02.054Z,3.40
2018-04-20T16:31:33.947Z,3.42
2018-04-20T16:34:05.823Z,3.00
2018-04-20T16:36:37.718Z,3.40
2018-04-20T16:39:09.719Z,3.35
2018-04-20T16:41:41.483Z,3.30
2018-04-20T16:44:13.354Z,3.87
2018-04-20T16:46:46.754Z,3.80
2018-04-20T16:49:18.642Z,3.70
2018-04-20T16:51:51.298Z,3.80
2018-04-20T16:54:23.170Z,3.85
2018-04-20T16:56:55.053Z,3.53
2018-04-20T16:59:27.946Z,4.07
2018-04-20T17:01:59.830Z,4.05
2018-04-20T17:04:31.974Z,4.00
2018-04-20T17:07:03.862Z,3.70
2018-04-20T17:09:35.744Z,4.70
2018-04-20T17:12:07.684Z,3.90
2018-04-20T17:14:39.623Z,4.03
2018-04-20T17:17:12.494Z,3.67
2018-04-20T17:19:44.658Z,4.07
2018-04-20T17:22:16.547Z,3.78
2018-04-20T17:24:48.440Z,4.62
2018-04-20T17:27:20.322Z,4.20
2018-04-20T17:29:53.786Z,4.00
2018-04-20T17:32:25.676Z,4.00
2018-04-20T17:34:58.314Z,4.22
2018-04-20T17:37:30.223Z,3.83
2018-04-20T17:40:02.941Z,3.90
2018-04-20T17:42:34.841Z,3.97
2018-04-20T17:45:06.762Z,3.90
2018-04-20T17:47:38.651Z,4.37
2018-04-20T17:50:10.537Z,4.57
2018-04-20T17:52:43.185Z,3.67
2018-04-20T17:55:15.076Z,3.87
2018-04-20T17:57:47.726Z,4.05
2018-04-20T18:00:19.606Z,3.80
2018-04-20T18:02:51.512Z,4.43
2018-04-20T18:05:23.414Z,4.07
2018-04-20T18:07:55.305Z,4.05
2018-04-20T18:10:27.946Z,4.35
2018-04-20T18:12:59.842Z,4.18
2018-04-20T18:15:32.482Z,5.15
2018-04-20T18:18:04.610Z,5.18
2018-04-20T18:20:36.481Z,5.50
2018-04-20T18:23:08.382Z,5.32
2018-04-20T18:25:40.267Z,5.78
2018-04-20T18:28:12.915Z,5.68
2018-04-20T18:30:44.794Z,6.30
2018-04-20T18:33:16.679Z,5.05
2018-04-20T18:35:48.569Z,5.55
2018-04-20T18:38:20.806Z,5.85
2018-04-20T18:40:52.722Z,5.35
2018-04-20T18:43:24.619Z,6.00
2018-04-20T18:45:57.512Z,6.03
2018-04-20T18:48:29.681Z,5.50
2018-04-20T18:51:01.563Z,5.65
2018-04-20T18:53:33.447Z,5.78
2018-04-20T18:56:05.323Z,6.37
2018-04-20T18:58:37.215Z,7.25
2018-04-20T19:01:09.102Z,7.53
2018-04-20T19:03:40.998Z,6.40
2018-04-20T19:06:13.219Z,7.00
2018-04-20T19:08:45.099Z,6.72
2018-04-20T19:11:16.970Z,6.97
2018-04-20T19:13:48.866Z,6.53
2018-04-20T19:16:21.733Z,7.05
2018-04-20T19:18:53.622Z,7.00
2018-04-20T19:21:26.301Z,7.50
2018-04-20T19:23:58.971Z,9.80
2018-04-20T19:26:31.615Z,8.10
2018-04-20T19:29:03.757Z,9.35
2018-04-20T19:31:35.655Z,8.68
2018-04-20T19:34:07.546Z,7.57
2018-04-20T19:36:40.184Z,8.10
2018-04-20T19:39:12.079Z,8.18
2018-04-20T19:41:44.717Z,7.47
2018-04-20T19:44:16.658Z,8.27
2018-04-20T19:46:48.794Z,7.82
2018-04-20T19:49:20.686Z,7.97
2018-04-20T19:51:52.562Z,8.43
2018-04-20T19:54:24.455Z,8.48
2018-04-20T19:56:57.094Z,9.43
2018-04-20T19:59:28.990Z,8.93
2018-04-20T20:02:00.858Z,9.30
2018-04-20T20:04:33.762Z,10.13
2018-04-20T20:07:05.638Z,9.00
2018-04-20T20:09:37.525Z,9.75
2018-04-20T20:12:09.402Z,9.63
2018-04-20T20:14:41.306Z,9.23
2018-04-20T20:17:13.186Z,9.95
2018-04-20T20:19:45.127Z,10.30
2018-04-20T20:22:17.746Z,9.73
2018-04-20T20:24:49.659Z,11.10
2018-04-20T20:27:21.542Z,9.68
2018-04-20T20:29:53.430Z,11.38
2018-04-20T20:32:25.316Z,10.50
2018-04-20T20:34:57.210Z,11.23
2018-04-20T20:37:29.090Z,12.00
2018-04-20T20:40:00.983Z,12.63
2018-04-20T20:42:32.862Z,11.77
2018-04-20T20:45:05.523Z,11.48
2018-04-20T20:47:37.397Z,12.23
2018-04-20T20:50:10.306Z,13.10
2018-04-20T20:52:42.199Z,12.27
2018-04-20T20:55:14.091Z,12.90
2018-04-20T20:57:45.965Z,11.98
2018-04-20T21:00:18.618Z,12.37
2018-04-20T21:02:50.511Z,11.95
2018-04-20T21:05:23.162Z,12.85
2018-04-20T21:07:55.060Z,13.65
2018-04-20T21:10:26.954Z,12.75
2018-04-20T21:12:58.835Z,14.87
2018-04-20T21:15:30.722Z,16.73
2018-04-20T21:18:03.630Z,16.20
2018-04-20T21:20:35.516Z,15.77
2018-04-20T21:23:07.657Z,16.37
2018-04-20T21:25:39.555Z,16.02
2018-04-20T21:28:11.441Z,18.00
2018-04-20T21:30:43.325Z,16.77
2018-04-20T21:33:15.973Z,16.48
2018-04-20T21:35:47.868Z,16.67
2018-04-20T21:38:19.778Z,17.23
2018-04-20T21:40:51.697Z,16.20
2018-04-20T21:43:23.607Z,16.17
2018-04-20T21:45:55.494Z,17.55
2018-04-20T21:48:28.142Z,17.17
2018-04-20T21:51:00.035Z,15.98
2018-04-20T21:53:32.675Z,17.00
2018-04-20T21:56:04.571Z,17.30
2018-04-20T21:58:37.218Z,17.33
2018-04-20T22:01:09.109Z,17.12
2018-04-20T22:03:41.758Z,18.23
2018-04-20T22:06:13.663Z,17.33
2018-04-20T22:08:46.555Z,17.12
2018-04-20T22:11:18.722Z,18.48
2018-04-20T22:13:50.594Z,18.25
2018-04-20T22:16:22.486Z,19.05
2018-04-20T22:18:54.358Z,18.92
2018-04-20T22:21:26.566Z,17.98
2018-04-20T22:23:58.441Z,18.10
2018-04-20T22:26:30.339Z,18.15
2018-04-20T22:29:02.215Z,18.50
2018-04-20T22:31:34.173Z,18.40
2018-04-20T22:34:06.058Z,17.42
2018-04-20T22:36:38.718Z,18.62
2018-04-20T22:39:10.597Z,19.58
2018-04-20T22:41:43.258Z,18.58
2018-04-20T22:44:15.136Z,18.60
2018-04-20T22:46:47.794Z,19.95
2018-04-20T22:49:19.677Z,19.80
2018-04-20T22:51:52.329Z,19.37
2018-04-20T22:54:24.206Z,18.40
2018-04-20T22:56:56.858Z,18.62
2018-04-20T22:59:28.787Z,18.92
2018-04-20T23:02:01.402Z,18.87
2018-04-20T23:04:33.273Z,17.23
2018-04-20T23:07:05.166Z,19.12
2018-04-20T23:09:37.046Z,19.43
2018-04-20T23:12:08.931Z,18.87
2018-04-20T23:14:40.801Z,17.83
2018-04-20T23:17:12.690Z,19.73
2018-04-20T23:19:45.336Z,20.33
2018-04-20T23:22:17.222Z,20.10
2018-04-20T23:24:49.869Z,21.87
2018-04-20T23:27:21.766Z,21.33
2018-04-20T23:29:54.405Z,22.80
2018-04-20T23:32:26.294Z,22.53
2018-04-20T23:34:58.938Z,20.93
2018-04-20T23:37:30.829Z,21.97
2018-04-20T23:40:02.702Z,22.43
2018-04-20T23:42:35.378Z,22.23
2018-04-20T23:45:08.062Z,23.80
2018-04-20T23:47:40.722Z,23.17
2018-04-20T23:50:12.598Z,23.80
2018-04-20T23:52:45.254Z,23.00
2018-04-20T23:55:17.130Z,21.70
2018-04-20T23:57:49.784Z,23.27
